Terminal Aerodrome Forecast
Issued by NWS

Home | Current Version | Previous Version | Text Only | Print | Product List | Glossary On
Versions: 1 2 3 4 5 6 7 8 9 10 11 12 13 14 15
831
FTPA31 PHFO 300527
TAFHTO
TAF
PHTO 300527Z 3006/0106 VRB05KT P6SM VCSH SCT035 BKN050
     FM302000 14011G17KT P6SM VCSH SCT020 BKN035
     FM010500 12006KT P6SM VCSH SCT025 BKN040=

USA.gov is the U.S. government's official web portal to all federal, state and local government web resources and services.